createdAt,value
2022-10-10T00:00:53.032Z,11.60
2022-10-10T00:03:21.296Z,11.60
2022-10-10T00:05:49.774Z,11.40
2022-10-10T00:08:18.171Z,11.50
2022-10-10T00:10:48.440Z,11.30
2022-10-10T00:13:16.876Z,11.40
2022-10-10T00:15:48.825Z,11.60
2022-10-10T00:18:17.292Z,11.50
2022-10-10T00:20:45.598Z,11.40
2022-10-10T00:23:13.569Z,11.30
2022-10-10T00:25:42.101Z,11.30
2022-10-10T00:28:44.063Z,11.50
2022-10-10T00:31:12.448Z,11.70
2022-10-10T00:33:42.418Z,11.70
2022-10-10T00:36:13.798Z,11.50
2022-10-10T00:38:42.347Z,11.60
2022-10-10T00:41:10.527Z,11.50
2022-10-10T00:43:41.474Z,11.40
2022-10-10T00:46:11.273Z,11.30
2022-10-10T00:48:41.144Z,11.20
2022-10-10T00:51:10.617Z,11.30
2022-10-10T00:53:41.427Z,11.40
2022-10-10T00:56:09.917Z,11.40
2022-10-10T00:58:38.935Z,11.30
2022-10-10T01:01:07.442Z,11.30
2022-10-10T01:03:40.625Z,11.30
2022-10-10T01:06:09.365Z,11.30
2022-10-10T01:08:37.953Z,11.20
2022-10-10T01:11:11.824Z,11.30
2022-10-10T01:13:46.745Z,11.20
2022-10-10T01:16:17.942Z,11.20
2022-10-10T01:18:51.212Z,11.20
2022-10-10T01:21:24.526Z,11.10
2022-10-10T01:24:16.412Z,11.10
2022-10-10T01:27:18.648Z,11.10
2022-10-10T01:29:49.466Z,10.90
2022-10-10T01:32:24.856Z,11.00
2022-10-10T01:34:58.159Z,11.00
2022-10-10T01:37:29.961Z,11.10
2022-10-10T01:39:59.584Z,11.20
2022-10-10T01:42:29.879Z,11.10
2022-10-10T01:44:59.064Z,11.10
2022-10-10T01:47:26.878Z,11.10
2022-10-10T01:49:56.399Z,11.00
2022-10-10T01:52:33.043Z,11.10
2022-10-10T01:55:09.833Z,11.10
2022-10-10T01:57:41.585Z,11.20
2022-10-10T02:00:11.804Z,11.00
2022-10-10T02:02:48.470Z,11.10
2022-10-10T02:05:20.782Z,11.20
2022-10-10T02:07:50.252Z,10.90
2022-10-10T02:10:21.217Z,10.90
2022-10-10T02:12:49.387Z,10.80
2022-10-10T02:15:20.754Z,10.90
2022-10-10T02:17:49.133Z,11.00
2022-10-10T02:20:19.037Z,11.00
2022-10-10T02:22:47.285Z,10.80
2022-10-10T02:25:15.226Z,10.80
2022-10-10T02:27:45.775Z,10.80
2022-10-10T02:30:13.872Z,10.70
2022-10-10T02:32:44.201Z,10.70
2022-10-10T02:35:15.379Z,10.80
2022-10-10T02:37:43.192Z,10.70
2022-10-10T02:40:11.821Z,10.60
2022-10-10T02:42:39.660Z,10.60
2022-10-10T02:45:08.490Z,10.40
2022-10-10T02:47:36.324Z,10.50
2022-10-10T02:50:06.381Z,10.50
2022-10-10T02:52:34.292Z,10.60
2022-10-10T02:55:02.266Z,10.70
2022-10-10T02:57:30.083Z,10.50
2022-10-10T02:59:57.925Z,10.50
2022-10-10T03:02:25.745Z,10.60
2022-10-10T03:04:53.599Z,10.60
2022-10-10T03:07:22.745Z,10.60
2022-10-10T03:09:50.605Z,10.30
2022-10-10T03:12:18.858Z,10.40
2022-10-10T03:14:46.787Z,10.50
2022-10-10T03:17:14.612Z,10.50
2022-10-10T03:19:42.456Z,10.50
2022-10-10T03:22:10.307Z,10.20
2022-10-10T03:24:39.513Z,10.50
2022-10-10T03:27:07.357Z,10.20
2022-10-10T03:29:36.932Z,10.40
2022-10-10T03:32:07.952Z,10.40
2022-10-10T03:34:38.642Z,10.30
2022-10-10T03:37:06.464Z,10.20
2022-10-10T03:39:34.346Z,10.30
2022-10-10T03:42:03.632Z,10.20
2022-10-10T03:44:31.483Z,10.30
2022-10-10T03:46:59.308Z,10.40
2022-10-10T03:49:27.128Z,10.20
2022-10-10T03:51:54.975Z,10.30
2022-10-10T03:54:22.821Z,10.20
2022-10-10T03:56:50.673Z,10.00
2022-10-10T03:59:19.886Z,9.80
2022-10-10T04:01:47.741Z,9.80
2022-10-10T04:04:15.829Z,9.80
2022-10-10T04:06:43.832Z,9.80
2022-10-10T04:09:11.754Z,9.70
2022-10-10T04:11:40.841Z,9.80
2022-10-10T04:14:08.689Z,9.70
2022-10-10T04:16:37.890Z,9.80
2022-10-10T04:19:05.696Z,9.90
2022-10-10T04:21:33.577Z,9.90
2022-10-10T04:24:01.388Z,9.80
2022-10-10T04:26:29.256Z,10.00
2022-10-10T04:28:57.097Z,10.00
2022-10-10T04:31:25.301Z,9.90
2022-10-10T04:33:54.509Z,9.90
2022-10-10T04:36:22.377Z,9.90
2022-10-10T04:38:50.264Z,9.60
2022-10-10T04:41:18.091Z,9.60
2022-10-10T04:43:45.892Z,9.50
2022-10-10T04:46:13.717Z,9.50
2022-10-10T04:48:41.584Z,9.40
2022-10-10T04:51:10.853Z,9.60
2022-10-10T04:53:38.682Z,9.50
2022-10-10T04:56:06.718Z,9.50
2022-10-10T04:58:34.634Z,9.40
2022-10-10T05:01:02.555Z,9.50
2022-10-10T05:03:30.393Z,9.50
2022-10-10T05:05:58.207Z,9.50
2022-10-10T05:08:27.392Z,9.50
2022-10-10T05:10:55.206Z,9.50
2022-10-10T05:13:23.014Z,9.60
2022-10-10T05:15:52.231Z,9.50
2022-10-10T05:18:20.284Z,9.60
2022-10-10T05:20:48.533Z,9.60
2022-10-10T05:23:16.591Z,9.50
2022-10-10T05:25:46.236Z,9.40
2022-10-10T05:28:14.090Z,9.50
2022-10-10T05:30:42.003Z,9.50
2022-10-10T05:33:09.920Z,9.40
2022-10-10T05:35:37.820Z,9.50
2022-10-10T05:38:06.482Z,9.50
2022-10-10T05:40:34.422Z,9.40
2022-10-10T05:43:03.621Z,9.50
2022-10-10T05:45:31.485Z,9.80
2022-10-10T05:47:59.309Z,9.50
2022-10-10T05:50:30.954Z,9.60
2022-10-10T05:52:58.796Z,9.80
2022-10-10T05:55:26.714Z,9.70
2022-10-10T05:57:54.522Z,9.70
2022-10-10T06:00:23.712Z,9.80
2022-10-10T06:02:51.754Z,9.80
2022-10-10T06:05:20.131Z,9.80
2022-10-10T06:08:04.656Z,10.00
2022-10-10T06:10:35.725Z,9.70
2022-10-10T06:13:03.563Z,9.60
2022-10-10T06:15:32.751Z,9.60
2022-10-10T06:18:00.580Z,9.70
2022-10-10T06:20:28.426Z,9.70
2022-10-10T06:22:56.321Z,9.90
2022-10-10T06:25:39.360Z,9.70
2022-10-10T06:28:07.735Z,9.60
2022-10-10T06:30:40.886Z,9.70
2022-10-10T06:33:08.806Z,9.70
2022-10-10T06:35:39.926Z,9.60
2022-10-10T06:38:07.765Z,9.70
2022-10-10T06:40:35.649Z,9.80
2022-10-10T06:43:04.599Z,9.90
2022-10-10T06:45:32.453Z,10.00
2022-10-10T06:48:01.816Z,10.00
2022-10-10T06:50:29.669Z,10.20
2022-10-10T06:52:57.612Z,10.00
2022-10-10T06:55:25.466Z,10.10
2022-10-10T06:57:53.778Z,10.10
2022-10-10T07:00:21.604Z,10.10
2022-10-10T07:02:49.721Z,10.10
2022-10-10T07:05:19.384Z,10.20
2022-10-10T07:07:47.261Z,10.30
2022-10-10T07:10:15.640Z,10.40
2022-10-10T07:12:52.272Z,10.30
2022-10-10T07:15:20.133Z,10.30
2022-10-10T07:17:53.445Z,10.20
2022-10-10T07:20:23.484Z,10.40
2022-10-10T07:22:51.600Z,10.40
2022-10-10T07:25:19.640Z,10.40
2022-10-10T07:27:47.607Z,10.50
2022-10-10T07:30:15.452Z,10.60
2022-10-10T07:32:43.498Z,10.70
2022-10-10T07:35:11.935Z,10.80
2022-10-10T07:37:41.314Z,10.90
2022-10-10T07:40:10.315Z,11.00
2022-10-10T07:42:38.252Z,11.10
2022-10-10T07:45:07.169Z,11.20
2022-10-10T07:47:35.049Z,11.20
2022-10-10T07:50:02.868Z,11.40
2022-10-10T07:52:30.717Z,11.40
2022-10-10T07:54:59.887Z,11.40
2022-10-10T07:57:27.752Z,11.60
2022-10-10T07:59:55.600Z,11.80
2022-10-10T08:02:23.461Z,12.00
2022-10-10T08:04:51.312Z,12.10
2022-10-10T08:07:19.582Z,12.10
2022-10-10T08:09:47.450Z,12.00
2022-10-10T08:12:16.635Z,11.80
2022-10-10T08:14:44.458Z,11.90
2022-10-10T08:17:12.303Z,12.00
2022-10-10T08:19:40.189Z,12.00
2022-10-10T08:22:08.043Z,12.10
2022-10-10T08:24:35.889Z,12.30
2022-10-10T08:27:03.769Z,12.30
2022-10-10T08:29:32.967Z,12.50
2022-10-10T08:32:00.815Z,12.70
2022-10-10T08:34:28.631Z,12.70
2022-10-10T08:36:56.671Z,12.70
2022-10-10T08:39:24.503Z,13.00
2022-10-10T08:41:53.231Z,13.70
2022-10-10T08:44:23.378Z,13.90
2022-10-10T08:46:53.821Z,13.80
2022-10-10T08:49:25.440Z,13.80
2022-10-10T08:51:58.018Z,13.80
2022-10-10T08:54:26.834Z,14.00
2022-10-10T08:56:56.008Z,14.20
2022-10-10T08:59:25.833Z,14.20
2022-10-10T09:02:18.463Z,14.00
2022-10-10T09:04:46.821Z,14.20
2022-10-10T09:07:19.610Z,14.20
2022-10-10T09:09:51.372Z,14.60
2022-10-10T09:12:23.532Z,14.80
2022-10-10T09:14:57.499Z,15.00
2022-10-10T09:17:36.967Z,15.10
2022-10-10T09:20:12.775Z,15.20
2022-10-10T09:22:44.398Z,15.40
2022-10-10T09:25:16.598Z,15.60
2022-10-10T09:27:45.515Z,15.50
2022-10-10T09:30:16.518Z,15.50
2022-10-10T09:32:46.842Z,15.80
2022-10-10T09:35:16.831Z,15.90
2022-10-10T09:37:47.791Z,16.00
2022-10-10T09:40:19.709Z,15.90
2022-10-10T09:42:47.560Z,15.90
2022-10-10T09:45:18.204Z,15.90
2022-10-10T09:47:48.245Z,16.10
2022-10-10T09:50:16.437Z,16.10
2022-10-10T09:52:44.541Z,16.10
2022-10-10T09:55:26.447Z,16.10
2022-10-10T09:57:55.210Z,16.30
2022-10-10T10:00:28.472Z,16.40
2022-10-10T10:03:07.293Z,16.60
2022-10-10T10:05:35.151Z,16.80
2022-10-10T10:08:02.999Z,16.90
2022-10-10T10:10:31.096Z,17.40
2022-10-10T10:12:58.986Z,17.60
2022-10-10T10:15:28.697Z,18.00
2022-10-10T10:18:24.659Z,18.20
2022-10-10T10:20:52.992Z,18.50
2022-10-10T10:23:24.847Z,18.90
2022-10-10T10:25:59.736Z,19.50
2022-10-10T10:28:27.988Z,19.80
2022-10-10T10:30:56.350Z,19.50
2022-10-10T10:33:34.021Z,19.60
2022-10-10T10:36:04.546Z,19.80
2022-10-10T10:38:35.713Z,19.80
2022-10-10T10:41:05.820Z,20.00
2022-10-10T10:43:44.555Z,20.00
2022-10-10T10:46:16.146Z,20.10
2022-10-10T10:48:47.771Z,20.10
2022-10-10T10:51:28.636Z,20.10
2022-10-10T10:53:59.249Z,20.10
2022-10-10T10:56:28.135Z,20.30
2022-10-10T10:59:30.272Z,20.70
2022-10-10T11:01:58.011Z,21.00
2022-10-10T11:05:18.128Z,21.10
2022-10-10T11:07:37.839Z,21.20
2022-10-10T11:10:11.702Z,21.10
2022-10-10T11:12:46.634Z,21.30
2022-10-10T11:15:17.058Z,21.50
2022-10-10T11:17:46.363Z,21.70
2022-10-10T11:20:21.449Z,21.70
2022-10-10T11:22:51.012Z,21.80
2022-10-10T11:25:23.356Z,22.00
2022-10-10T11:27:53.173Z,22.00
2022-10-10T11:30:22.302Z,22.20
2022-10-10T11:32:52.881Z,22.30
2022-10-10T11:35:31.284Z,22.40
2022-10-10T11:38:01.377Z,22.60
2022-10-10T11:40:37.612Z,22.80
2022-10-10T11:43:07.162Z,22.90
2022-10-10T11:45:36.600Z,23.00
2022-10-10T11:48:13.213Z,23.00
2022-10-10T11:50:43.590Z,22.80
2022-10-10T11:53:16.471Z,22.90
2022-10-10T11:55:46.697Z,23.20
2022-10-10T11:58:31.270Z,23.30
2022-10-10T12:01:00.381Z,23.20
2022-10-10T12:03:28.203Z,22.70
2022-10-10T12:05:59.602Z,22.70
2022-10-10T12:08:31.641Z,22.40
2022-10-10T12:11:01.643Z,22.40
2022-10-10T12:13:30.804Z,22.00
2022-10-10T12:15:59.995Z,21.80
2022-10-10T12:18:29.569Z,21.90
2022-10-10T12:21:06.442Z,21.80
2022-10-10T12:23:34.309Z,21.80
2022-10-10T12:26:02.353Z,21.70
2022-10-10T12:28:35.989Z,21.40
2022-10-10T12:31:20.062Z,21.30
2022-10-10T12:34:02.389Z,20.90
2022-10-10T12:37:07.573Z,20.90
2022-10-10T12:39:40.325Z,20.80
2022-10-10T12:42:27.341Z,20.60
2022-10-10T12:44:55.313Z,20.20
2022-10-10T12:47:59.667Z,20.40
2022-10-10T12:50:23.127Z,20.20
2022-10-10T12:52:52.397Z,20.10
2022-10-10T12:55:23.706Z,20.00
2022-10-10T12:57:51.893Z,20.00
2022-10-10T13:00:21.145Z,19.90
2022-10-10T13:02:50.696Z,19.90
2022-10-10T13:05:20.114Z,19.90
2022-10-10T13:07:48.997Z,19.70
2022-10-10T13:10:25.146Z,19.60
2022-10-10T13:13:02.870Z,19.60
2022-10-10T13:15:31.065Z,19.40
2022-10-10T13:17:58.964Z,19.30
2022-10-10T13:20:36.301Z,19.20
2022-10-10T13:23:05.037Z,19.30
2022-10-10T13:25:34.660Z,19.30
2022-10-10T13:28:02.791Z,19.10
2022-10-10T13:30:30.661Z,19.10
2022-10-10T13:32:58.469Z,19.10
2022-10-10T13:35:27.265Z,19.10
2022-10-10T13:37:56.589Z,19.10
2022-10-10T13:40:24.478Z,19.00
2022-10-10T13:42:53.792Z,18.90
2022-10-10T13:45:45.179Z,18.90
2022-10-10T13:48:38.599Z,18.90
2022-10-10T13:51:09.668Z,18.80
2022-10-10T13:53:49.087Z,18.70
2022-10-10T13:56:18.959Z,18.60
2022-10-10T13:58:49.308Z,18.50
2022-10-10T14:01:28.544Z,18.50
2022-10-10T14:03:57.914Z,18.50
2022-10-10T14:06:26.936Z,18.40
2022-10-10T14:08:55.440Z,18.50
2022-10-10T14:11:27.511Z,18.40
2022-10-10T14:13:58.944Z,18.40
2022-10-10T14:16:26.855Z,18.30
2022-10-10T14:18:54.771Z,18.30
2022-10-10T14:21:22.696Z,18.20
2022-10-10T14:23:50.541Z,18.10
2022-10-10T14:26:19.026Z,18.00
2022-10-10T14:28:47.154Z,18.00
2022-10-10T14:31:16.488Z,18.00
2022-10-10T14:33:44.395Z,18.00
2022-10-10T14:36:12.977Z,18.00
2022-10-10T14:38:40.936Z,18.00
2022-10-10T14:41:10.706Z,18.00
2022-10-10T14:43:41.230Z,18.00
2022-10-10T14:46:13.581Z,18.10
2022-10-10T14:48:42.810Z,18.00
2022-10-10T14:51:33.746Z,17.90
2022-10-10T14:54:12.005Z,17.90
2022-10-10T14:57:08.772Z,17.80
2022-10-10T14:59:47.261Z,17.80
2022-10-10T15:02:16.675Z,17.80
2022-10-10T15:04:45.934Z,17.80
2022-10-10T15:07:15.000Z,17.90
2022-10-10T15:10:02.677Z,17.90
2022-10-10T15:12:31.443Z,17.90
2022-10-10T15:14:59.322Z,17.90
2022-10-10T15:17:27.296Z,17.90
2022-10-10T15:19:56.572Z,17.90
2022-10-10T15:22:24.446Z,17.90
2022-10-10T15:24:52.323Z,17.80
2022-10-10T15:27:20.342Z,17.80
2022-10-10T15:29:48.228Z,17.70
2022-10-10T15:32:16.044Z,17.70
2022-10-10T15:34:43.898Z,17.60
2022-10-10T15:37:13.161Z,17.60
2022-10-10T15:39:41.299Z,17.50
2022-10-10T15:42:15.030Z,17.50
2022-10-10T15:44:45.825Z,17.50
2022-10-10T15:47:13.786Z,17.50
2022-10-10T15:49:41.833Z,17.50
2022-10-10T15:52:09.788Z,17.30
2022-10-10T15:54:41.466Z,17.30
2022-10-10T15:57:14.115Z,17.20
2022-10-10T15:59:44.427Z,17.30
2022-10-10T16:02:12.549Z,17.30
2022-10-10T16:04:43.168Z,17.20
2022-10-10T16:07:26.914Z,17.20
2022-10-10T16:09:59.480Z,17.10
2022-10-10T16:12:27.485Z,17.20
2022-10-10T16:14:55.527Z,17.10
2022-10-10T16:17:23.946Z,16.90
2022-10-10T16:19:52.302Z,16.90
2022-10-10T16:22:22.368Z,16.90
2022-10-10T16:25:10.161Z,16.90
2022-10-10T16:27:39.770Z,16.90
2022-10-10T16:30:08.803Z,16.80
2022-10-10T16:32:41.675Z,16.70
2022-10-10T16:35:10.591Z,16.80
2022-10-10T16:37:38.963Z,16.70
2022-10-10T16:40:07.942Z,16.70
2022-10-10T16:42:35.829Z,16.80
2022-10-10T16:45:05.700Z,16.70
2022-10-10T16:47:33.578Z,16.70
2022-10-10T16:50:01.457Z,16.60
2022-10-10T16:52:29.545Z,16.60
2022-10-10T16:55:00.338Z,16.70
2022-10-10T16:57:28.301Z,16.60
2022-10-10T16:59:56.300Z,16.70
2022-10-10T17:02:25.672Z,16.50
2022-10-10T17:04:59.952Z,16.40
2022-10-10T17:07:27.879Z,16.30
2022-10-10T17:09:55.733Z,16.20
2022-10-10T17:12:26.464Z,16.20
2022-10-10T17:14:54.772Z,16.30
2022-10-10T17:17:22.669Z,16.20
2022-10-10T17:19:51.840Z,16.20
2022-10-10T17:22:20.078Z,16.30
2022-10-10T17:24:48.044Z,16.20
2022-10-10T17:27:15.903Z,16.10
2022-10-10T17:29:43.856Z,16.10
2022-10-10T17:32:11.757Z,16.10
2022-10-10T17:34:39.641Z,16.00
2022-10-10T17:37:09.004Z,16.10
2022-10-10T17:39:36.897Z,16.10
2022-10-10T17:42:05.147Z,16.00
2022-10-10T17:44:39.128Z,15.90
2022-10-10T17:47:10.137Z,15.90
2022-10-10T17:49:38.313Z,15.90
2022-10-10T17:52:06.320Z,15.80
2022-10-10T17:54:35.689Z,15.80
2022-10-10T17:57:03.577Z,15.90
2022-10-10T17:59:31.462Z,15.80
2022-10-10T18:01:59.341Z,15.70
2022-10-10T18:04:27.165Z,15.70
2022-10-10T18:06:55.029Z,15.60
2022-10-10T18:09:22.836Z,15.70
2022-10-10T18:11:52.126Z,15.60
2022-10-10T18:14:21.761Z,15.60
2022-10-10T18:16:49.617Z,15.60
2022-10-10T18:19:18.086Z,15.60
2022-10-10T18:21:46.922Z,15.50
2022-10-10T18:24:14.815Z,15.50
2022-10-10T18:26:42.664Z,15.40
2022-10-10T18:29:11.998Z,15.40
2022-10-10T18:31:39.997Z,15.50
2022-10-10T18:34:08.196Z,15.40
2022-10-10T18:36:36.952Z,15.40
2022-10-10T18:39:05.808Z,15.40
2022-10-10T18:41:34.485Z,15.30
2022-10-10T18:44:02.730Z,15.20
2022-10-10T18:46:31.935Z,15.20
2022-10-10T18:49:00.655Z,15.30
2022-10-10T18:51:29.871Z,15.10
2022-10-10T18:54:00.813Z,15.10
2022-10-10T18:56:28.712Z,15.00
2022-10-10T18:58:57.416Z,14.90
2022-10-10T19:01:26.077Z,15.00
2022-10-10T19:03:55.329Z,15.00
2022-10-10T19:06:23.773Z,14.80
2022-10-10T19:08:51.850Z,14.70
2022-10-10T19:11:21.204Z,14.70
2022-10-10T19:13:49.033Z,14.90
2022-10-10T19:16:16.870Z,14.70
2022-10-10T19:18:45.118Z,14.70
2022-10-10T19:21:15.100Z,14.60
2022-10-10T19:23:43.102Z,14.70
2022-10-10T19:26:11.925Z,14.60
2022-10-10T19:28:40.001Z,14.60
2022-10-10T19:31:08.880Z,14.40
2022-10-10T19:33:36.831Z,14.40
2022-10-10T19:36:05.980Z,14.40
2022-10-10T19:38:35.771Z,14.30
2022-10-10T19:41:06.348Z,14.30
2022-10-10T19:43:34.673Z,14.30
2022-10-10T19:46:05.915Z,14.40
2022-10-10T19:48:34.359Z,14.50
2022-10-10T19:51:04.300Z,14.30
2022-10-10T19:53:33.452Z,14.20
2022-10-10T19:56:03.706Z,14.10
2022-10-10T19:58:31.726Z,14.10
2022-10-10T20:00:59.646Z,13.90
2022-10-10T20:03:27.583Z,14.00
2022-10-10T20:06:00.581Z,14.00
2022-10-10T20:08:28.688Z,14.00
2022-10-10T20:10:56.521Z,14.00
2022-10-10T20:13:25.768Z,13.80
2022-10-10T20:15:53.632Z,13.80
2022-10-10T20:18:21.863Z,13.80
2022-10-10T20:20:51.148Z,13.80
2022-10-10T20:23:19.847Z,13.80
2022-10-10T20:25:47.988Z,13.80
2022-10-10T20:28:16.769Z,13.60
2022-10-10T20:30:48.350Z,13.70
2022-10-10T20:33:16.286Z,13.70
2022-10-10T20:35:44.550Z,13.70
2022-10-10T20:38:12.377Z,13.60
2022-10-10T20:40:40.270Z,13.60
2022-10-10T20:43:08.114Z,13.40
2022-10-10T20:45:36.386Z,13.40
2022-10-10T20:48:06.020Z,13.40
2022-10-10T20:50:34.647Z,13.20
2022-10-10T20:53:02.487Z,13.10
2022-10-10T20:55:30.343Z,13.20
2022-10-10T20:57:58.157Z,13.10
2022-10-10T21:00:26.003Z,13.10
2022-10-10T21:02:55.088Z,13.00
2022-10-10T21:05:24.317Z,13.00
2022-10-10T21:07:52.169Z,13.00
2022-10-10T21:10:20.006Z,13.00
2022-10-10T21:12:47.848Z,13.20
2022-10-10T21:15:15.896Z,13.30
2022-10-10T21:17:43.733Z,13.10
2022-10-10T21:20:12.135Z,13.10
2022-10-10T21:22:41.344Z,13.10
2022-10-10T21:25:09.754Z,12.70
2022-10-10T21:27:37.593Z,12.80
2022-10-10T21:30:06.434Z,12.80
2022-10-10T21:32:34.274Z,12.90
2022-10-10T21:35:02.072Z,12.60
2022-10-10T21:37:30.514Z,12.60
2022-10-10T21:39:59.718Z,12.60
2022-10-10T21:42:27.538Z,12.80
2022-10-10T21:44:55.367Z,12.70
2022-10-10T21:47:23.185Z,12.60
2022-10-10T21:49:52.245Z,12.70
2022-10-10T21:52:20.060Z,12.30
2022-10-10T21:54:47.913Z,12.10
2022-10-10T21:57:17.084Z,12.10
2022-10-10T21:59:44.898Z,12.00
2022-10-10T22:02:12.793Z,12.00
2022-10-10T22:04:40.655Z,12.10
2022-10-10T22:07:08.475Z,12.10
2022-10-10T22:09:36.340Z,12.00
2022-10-10T22:12:04.379Z,11.90
2022-10-10T22:14:33.568Z,12.00
2022-10-10T22:17:01.359Z,12.00
2022-10-10T22:19:29.223Z,11.90
2022-10-10T22:21:57.037Z,11.80
2022-10-10T22:24:24.861Z,11.70
2022-10-10T22:26:52.674Z,11.80
2022-10-10T22:29:20.493Z,11.70
2022-10-10T22:31:49.659Z,11.70
2022-10-10T22:34:17.507Z,11.70
2022-10-10T22:36:45.348Z,11.50
2022-10-10T22:39:13.208Z,11.70
2022-10-10T22:41:41.003Z,11.80
2022-10-10T22:44:08.883Z,11.60
2022-10-10T22:46:36.722Z,11.50
2022-10-10T22:49:05.898Z,11.60
2022-10-10T22:51:33.739Z,11.50
2022-10-10T22:54:01.551Z,11.30
2022-10-10T22:56:29.444Z,11.30
2022-10-10T22:58:57.263Z,11.30
2022-10-10T23:01:26.080Z,11.30
2022-10-10T23:03:55.557Z,11.40
2022-10-10T23:06:24.742Z,11.10
2022-10-10T23:08:52.568Z,11.10
2022-10-10T23:11:20.398Z,11.10
2022-10-10T23:13:48.497Z,11.10
2022-10-10T23:16:16.352Z,10.90
2022-10-10T23:18:44.202Z,10.70
2022-10-10T23:21:12.023Z,10.80
2022-10-10T23:23:41.215Z,10.80
2022-10-10T23:26:09.395Z,10.80
2022-10-10T23:28:39.282Z,10.80
2022-10-10T23:31:08.273Z,10.80
2022-10-10T23:33:37.295Z,10.70
2022-10-10T23:36:07.113Z,10.70
2022-10-10T23:38:35.152Z,10.70
2022-10-10T23:41:04.335Z,10.60
2022-10-10T23:43:32.175Z,10.60
2022-10-10T23:46:00.029Z,10.60
2022-10-10T23:48:27.857Z,10.50
2022-10-10T23:50:55.674Z,10.50
2022-10-10T23:53:23.510Z,10.50
2022-10-10T23:55:51.347Z,10.70
2022-10-10T23:58:20.502Z,10.70
